Time;durP1;ratioP1;P1;durP2;ratioP2;P2;SDS_P1;SDS_P2;PMS_P1;PMS_P2;Temp;Humidity;BMP_temperature;BMP_pressure;BME280_temperature;BME280_humidity;BME280_pressure;Samples;Min_cycle;Max_cycle;Signal;HPM_P1;HPM_P2
2022/11/10 00:00:57;;;;;;;2.05;0.60;;;;;;;6.61;100.00;93377.97;2131816;27;20030;-70
2022/11/10 00:01:58;;;;;;;4.00;0.50;;;;;;;6.55;100.00;93378.38;2131671;27;20062;-71
2022/11/10 00:03:03;;;;;;;1.23;0.47;;;;;;;6.51;100.00;93382.16;2131736;27;20056;-71
2022/11/10 00:04:04;;;;;;;1.63;0.40;;;;;;;6.49;100.00;93377.22;2130918;27;20341;-72
2022/11/10 00:05:05;;;;;;;1.05;0.50;;;;;;;6.49;100.00;93377.22;2131597;27;20038;-70
2022/11/10 00:06:08;;;;;;;2.05;0.47;;;;;;;6.45;100.00;93386.34;2131217;27;20027;-70
2022/11/10 00:07:09;;;;;;;3.13;0.50;;;;;;;6.45;100.00;93383.69;2131716;27;20129;-70
2022/11/10 00:08:11;;;;;;;4.95;0.75;;;;;;;6.48;100.00;93377.63;2131692;27;20029;-70
2022/11/10 00:09:12;;;;;;;2.53;0.60;;;;;;;6.43;100.00;93375.34;2130787;27;20038;-70
2022/11/10 00:10:14;;;;;;;1.40;0.68;;;;;;;6.46;100.00;93382.56;2131657;27;20042;-71
2022/11/10 00:11:15;;;;;;;4.50;0.60;;;;;;;6.49;100.00;93374.56;2131789;27;20061;-71
2022/11/10 00:12:16;;;;;;;2.90;0.65;;;;;;;6.45;100.00;93379.16;2131660;27;20025;-70
2022/11/10 00:13:17;;;;;;;2.92;0.60;;;;;;;6.44;100.00;93382.94;2131655;27;20022;-71
2022/11/10 00:17:00;;;;;;;1.33;0.50;;;;;;;6.43;100.00;93393.94;2123128;27;20046;-71
2022/11/10 00:18:02;;;;;;;2.50;0.70;;;;;;;6.46;100.00;93383.31;2130623;27;20038;-72
2022/11/10 00:19:03;;;;;;;3.58;0.90;;;;;;;6.44;100.00;93395.44;2130252;27;20027;-71
2022/11/10 00:20:04;;;;;;;3.60;0.60;;;;;;;6.42;100.00;93395.09;2124698;27;20031;-71
2022/11/10 00:21:08;;;;;;;4.00;0.63;;;;;;;6.42;100.00;93392.44;2131623;27;20346;-71
2022/11/10 00:22:09;;;;;;;1.25;0.63;;;;;;;6.42;100.00;93392.44;2131690;27;20051;-72
2022/11/10 00:23:09;;;;;;;1.48;0.47;;;;;;;6.41;100.00;93393.56;2131595;27;20026;-72
2022/11/10 00:24:10;;;;;;;3.00;0.70;;;;;;;6.38;100.00;93403.06;2130365;27;20484;-72
2022/11/10 00:25:11;;;;;;;2.80;0.70;;;;;;;6.44;100.00;93400.75;2130036;27;20133;-70
2022/11/10 00:26:15;;;;;;;3.20;0.70;;;;;;;6.47;100.00;93395.44;2131435;27;20073;-71
2022/11/10 00:27:16;;;;;;;2.25;0.50;;;;;;;6.40;100.00;93400.75;2131656;27;20113;-71
2022/11/10 00:28:18;;;;;;;1.77;0.50;;;;;;;6.38;100.00;93395.09;2131599;27;20850;-71
2022/11/10 00:29:19;;;;;;;4.32;0.60;;;;;;;6.32;100.00;93407.22;2131183;27;20033;-71
2022/11/10 00:30:20;;;;;;;1.42;0.52;;;;;;;6.29;100.00;93406.09;2131068;27;20026;-70
2022/11/10 00:31:21;;;;;;;1.35;0.60;;;;;;;6.34;100.00;93407.59;2131416;27;20034;-72
2022/11/10 00:32:22;;;;;;;3.13;0.60;;;;;;;6.35;100.00;93406.47;2127237;27;20364;-72
2022/11/10 00:33:23;;;;;;;2.03;0.80;;;;;;;6.38;100.00;93410.25;2131394;27;20445;-70
2022/11/10 00:34:24;;;;;;;3.50;1.00;;;;;;;6.37;100.00;93417.47;2131472;27;20030;-70
2022/11/10 00:35:26;;;;;;;4.97;0.57;;;;;;;6.35;100.00;93411.78;2130626;27;20072;-71
2022/11/10 00:36:27;;;;;;;4.68;0.88;;;;;;;6.33;100.00;93413.31;2130951;27;20059;-70
2022/11/10 00:37:28;;;;;;;1.90;0.60;;;;;;;6.32;100.00;93415.19;2131447;27;20038;-71
2022/11/10 00:38:29;;;;;;;4.95;0.55;;;;;;;6.26;100.00;93414.06;2131254;27;20033;-71
2022/11/10 00:39:30;;;;;;;5.28;0.80;;;;;;;6.25;100.00;93415.97;2131288;27;20105;-71
2022/11/10 00:40:31;;;;;;;2.65;0.47;;;;;;;6.26;100.00;93417.47;2131475;27;20018;-70
2022/11/10 00:41:32;;;;;;;1.50;0.60;;;;;;;6.25;100.00;93412.53;2130503;27;20026;-72
2022/11/10 00:42:33;;;;;;;0.57;0.40;;;;;;;6.28;100.00;93415.19;2131438;27;20414;-70
2022/11/10 00:43:35;;;;;;;3.05;0.68;;;;;;;6.30;100.00;93415.56;2131379;27;20030;-71
2022/11/10 00:44:36;;;;;;;3.85;0.90;;;;;;;6.40;100.00;93419.34;2131347;27;20027;-71
2022/11/10 00:45:41;;;;;;;3.00;0.70;;;;;;;6.38;100.00;93418.97;2131260;27;20162;-73
2022/11/10 00:46:42;;;;;;;2.10;0.60;;;;;;;6.42;100.00;93414.44;2130253;27;20026;-73
2022/11/10 00:47:45;;;;;;;1.98;0.55;;;;;;;6.36;100.00;93423.91;2130986;27;20067;-70
2022/11/10 00:48:46;;;;;;;3.38;0.50;;;;;;;6.34;100.00;93423.53;2131425;27;20022;-70
2022/11/10 00:49:46;;;;;;;6.47;0.80;;;;;;;6.37;100.00;93422.03;2131320;27;20026;-72
2022/11/10 00:50:47;;;;;;;4.47;0.70;;;;;;;6.39;100.00;93430.34;2131502;27;20095;-70
2022/11/10 00:51:48;;;;;;;0.93;0.60;;;;;;;6.40;100.00;93427.31;2130361;27;20029;-70
2022/11/10 00:52:49;;;;;;;2.90;0.50;;;;;;;6.41;100.00;93422.75;2131254;27;20058;-70
2022/11/10 00:53:51;;;;;;;4.32;0.80;;;;;;;6.42;100.00;93429.59;2131330;27;20125;-70
2022/11/10 00:54:52;;;;;;;3.65;0.60;;;;;;;6.39;100.00;93425.03;2126886;27;20026;-71
2022/11/10 00:55:53;;;;;;;1.88;0.50;;;;;;;6.42;100.00;93424.28;2130975;27;20026;-70
2022/11/10 00:56:53;;;;;;;3.70;0.70;;;;;;;6.43;100.00;93423.91;2130129;27;20023;-72
2022/11/10 00:57:54;;;;;;;2.03;0.68;;;;;;;6.42;100.00;93432.25;2131351;27;20126;-70
2022/11/10 00:58:55;;;;;;;8.25;0.90;;;;;;;6.39;100.00;93428.47;2131326;27;20427;-70
2022/11/10 00:59:56;;;;;;;4.82;0.80;;;;;;;6.43;100.00;93429.22;2131045;27;20369;-70
2022/11/10 01:01:02;;;;;;;3.40;0.60;;;;;;;6.37;100.00;93425.44;2131213;27;20035;-73
2022/11/10 01:02:03;;;;;;;3.45;0.70;;;;;;;6.37;100.00;93430.75;2130249;27;20015;-70
2022/11/10 01:03:04;;;;;;;3.90;0.80;;;;;;;6.37;100.00;93435.31;2131206;27;20030;-71
2022/11/10 01:04:06;;;;;;;2.17;0.60;;;;;;;6.35;100.00;93435.66;2131324;27;20026;-71
2022/11/10 01:05:07;;;;;;;1.10;0.70;;;;;;;6.35;100.00;93427.69;2131167;27;20023;-70
2022/11/10 01:06:14;;;;;;;1.23;0.52;;;;;;;6.38;100.00;93424.28;2130935;27;20097;-70
2022/11/10 01:07:15;;;;;;;4.03;0.60;;;;;;;6.38;100.00;93424.28;2130455;27;20027;-72
2022/11/10 01:08:16;;;;;;;5.25;0.80;;;;;;;6.42;100.00;93427.69;2131219;27;20022;-72
2022/11/10 01:09:18;;;;;;;5.57;0.80;;;;;;;6.42;100.00;93425.06;2131089;27;20083;-70
2022/11/10 01:10:19;;;;;;;1.77;0.60;;;;;;;6.45;100.00;93431.47;2131297;27;20027;-70
2022/11/10 01:11:25;;;;;;;2.70;0.70;;;;;;;6.40;100.00;93424.66;2131073;27;20023;-69
2022/11/10 01:12:30;;;;;;;1.42;0.60;;;;;;;6.38;100.00;93440.22;2126815;27;20019;-70
2022/11/10 01:13:31;;;;;;;3.75;1.17;;;;;;;6.41;100.00;93434.16;2128162;27;20027;-72
2022/11/10 01:14:32;;;;;;;5.90;1.00;;;;;;;6.41;100.00;93442.13;2131245;27;20026;-70
2022/11/10 01:15:33;;;;;;;5.97;0.80;;;;;;;6.44;100.00;93437.94;2131093;27;20026;-70
2022/11/10 01:16:34;;;;;;;5.22;0.77;;;;;;;6.44;100.00;93435.28;2130858;27;20054;-70
2022/11/10 01:17:35;;;;;;;1.27;0.60;;;;;;;6.42;100.00;93435.66;2130246;27;20038;-71
2022/11/10 01:18:37;;;;;;;3.75;0.50;;;;;;;6.44;100.00;93432.63;2130691;27;20022;-72
2022/11/10 01:19:38;;;;;;;5.10;1.08;;;;;;;6.45;100.00;93437.56;2131083;27;20029;-70
2022/11/10 01:20:38;;;;;;;4.43;0.70;;;;;;;6.45;100.00;93439.44;2131055;27;20050;-70
2022/11/10 01:21:39;;;;;;;2.25;0.65;;;;;;;6.48;100.00;93439.44;2121896;27;20030;-71
2022/11/10 01:22:42;;;;;;;2.90;1.02;;;;;;;6.51;100.00;93445.91;2121769;27;20045;-70
2022/11/10 01:23:43;;;;;;;2.92;0.88;;;;;;;6.49;100.00;93440.19;2130620;27;20031;-70
2022/11/10 01:24:44;;;;;;;1.85;0.63;;;;;;;6.46;100.00;93440.97;2130942;27;20049;-70
2022/11/10 01:25:45;;;;;;;2.53;0.80;;;;;;;6.43;100.00;93437.19;2131087;27;20106;-70
2022/11/10 01:26:47;;;;;;;4.50;0.77;;;;;;;6.39;100.00;93441.72;2130779;27;20021;-70
2022/11/10 01:27:49;;;;;;;4.35;0.75;;;;;;;6.35;100.00;93446.28;2130765;27;20110;-72
2022/11/10 01:28:50;;;;;;;1.23;0.60;;;;;;;6.30;100.00;93452.72;2127514;27;20098;-72
2022/11/10 01:29:51;;;;;;;7.03;0.73;;;;;;;6.26;100.00;93445.91;2131042;27;20102;-71
2022/11/10 01:31:03;;;;;;;1.95;0.70;;;;;;;6.22;100.00;93448.56;2126831;27;20030;-71
2022/11/10 01:32:04;;;;;;;6.38;0.80;;;;;;;6.17;100.00;93454.25;2130930;27;20018;-70
2022/11/10 01:33:06;;;;;;;4.28;0.90;;;;;;;6.15;100.00;93461.09;2130704;27;20026;-71
2022/11/10 01:34:07;;;;;;;4.15;0.95;;;;;;;6.11;100.00;93455.78;2130324;27;20033;-70
2022/11/10 01:35:09;;;;;;;3.83;0.65;;;;;;;6.09;100.00;93452.72;2131041;27;20210;-70
2022/11/10 01:36:10;;;;;;;3.00;0.80;;;;;;;6.05;100.00;93457.28;2121437;27;20035;-72
2022/11/10 01:37:12;;;;;;;5.25;1.00;;;;;;;6.00;100.00;93447.03;2122013;27;20116;-71
2022/11/10 01:38:13;;;;;;;4.28;0.70;;;;;;;5.88;100.00;93461.38;2130684;27;20034;-70
2022/11/10 01:39:14;;;;;;;3.55;0.73;;;;;;;5.91;100.00;93460.63;2130114;27;20023;-70
2022/11/10 01:40:15;;;;;;;2.20;0.82;;;;;;;5.94;100.00;93459.94;2131017;27;20019;-70
2022/11/10 01:41:15;;;;;;;1.63;0.55;;;;;;;5.93;100.00;93463.72;2130901;27;20015;-70
2022/11/10 01:42:37;;;;;;;2.63;0.80;;;;;;;5.89;100.00;93460.28;2131067;27;20051;-72
2022/11/10 01:43:38;;;;;;;1.65;0.70;;;;;;;5.87;100.00;93470.47;2128277;27;20431;-70
2022/11/10 01:44:40;;;;;;;1.70;0.50;;;;;;;5.80;100.00;93465.19;2131012;27;20022;-70
2022/11/10 01:46:01;;;;;;;0.50;0.50;;;;;;;5.83;100.00;93469.72;2131016;27;20030;-69
2022/11/10 01:47:02;;;;;;;2.58;0.63;;;;;;;5.77;100.00;93479.19;2128459;27;20030;-71
2022/11/10 01:48:06;;;;;;;2.88;0.90;;;;;;;5.63;100.00;93474.63;2130716;27;20019;-70
2022/11/10 01:49:08;;;;;;;2.78;0.50;;;;;;;5.62;100.00;93483.72;2130119;27;20046;-70
2022/11/10 01:50:09;;;;;;;1.17;0.40;;;;;;;5.71;100.00;93483.34;2130787;27;20064;-70
2022/11/10 01:51:10;;;;;;;1.45;0.47;;;;;;;5.69;100.00;93481.06;2130802;27;20488;-70
2022/11/10 01:52:13;;;;;;;3.13;0.52;;;;;;;5.71;100.00;93480.69;2130822;27;20593;-71
2022/11/10 01:53:22;;;;;;;1.02;0.60;;;;;;;5.68;100.00;93476.13;2130688;27;20075;-73
2022/11/10 01:54:47;;;;;;;1.75;0.57;;;;;;;5.66;100.00;93487.09;2125863;27;20410;-72
2022/11/10 01:55:49;;;;;;;3.15;0.57;;;;;;;5.64;100.00;93486.72;2108912;27;20094;-72
2022/11/10 01:56:54;;;;;;;3.20;0.70;;;;;;;5.62;100.00;93481.06;2121634;27;20054;-73
2022/11/10 01:57:55;;;;;;;2.83;0.73;;;;;;;5.59;100.00;93484.44;2127058;27;20022;-71
2022/11/10 01:59:04;;;;;;;3.10;0.82;;;;;;;5.54;100.00;93485.56;2130195;27;20034;-72
2022/11/10 02:00:05;;;;;;;4.32;0.88;;;;;;;5.49;100.00;93482.53;2129704;27;20022;-71
2022/11/10 02:01:07;;;;;;;2.92;0.60;;;;;;;5.44;100.00;93480.97;2130870;27;20022;-70
2022/11/10 02:02:15;;;;;;;1.92;0.60;;;;;;;5.42;100.00;93480.59;2130828;27;20033;-71
2022/11/10 02:03:22;;;;;;;8.30;0.70;;;;;;;5.37;100.00;93475.66;2130768;27;20479;-70
2022/11/10 02:04:24;;;;;;;3.50;0.77;;;;;;;5.35;100.00;93477.91;2126368;27;20030;-70
2022/11/10 02:05:25;;;;;;;2.85;0.80;;;;;;;5.32;100.00;93481.31;2126976;27;20686;-70
2022/11/10 02:06:30;;;;;;;7.25;0.70;;;;;;;5.32;100.00;93483.22;2130557;27;20030;-71
2022/11/10 02:07:31;;;;;;;0.60;0.60;;;;;;;5.37;100.00;93485.50;2130732;27;20022;-71
2022/11/10 02:08:33;;;;;;;1.85;0.80;;;;;;;5.35;100.00;93485.09;2130674;27;20018;-72
2022/11/10 02:09:34;;;;;;;3.65;0.90;;;;;;;5.26;100.00;93482.81;2130586;27;20035;-70
2022/11/10 02:10:36;;;;;;;3.40;0.75;;;;;;;5.21;100.00;93481.28;2128275;27;20026;-72
2022/11/10 02:11:38;;;;;;;1.95;0.75;;;;;;;5.21;100.00;93488.47;2130682;27;20022;-72
2022/11/10 02:12:39;;;;;;;4.05;0.88;;;;;;;5.19;100.00;93486.19;2130708;27;20113;-70
2022/11/10 02:13:40;;;;;;;47.78;1.60;;;;;;;5.21;100.00;93493.75;2127804;27;20023;-69
2022/11/10 02:14:42;;;;;;;34.55;1.30;;;;;;;5.10;100.00;93487.66;2128431;27;20794;-72
2022/11/10 02:15:43;;;;;;;2.65;0.50;;;;;;;5.12;100.00;93486.16;2130345;27;20111;-70
2022/11/10 02:16:44;;;;;;;2.33;0.60;;;;;;;5.04;100.00;93490.66;2130410;27;20023;-70
2022/11/10 02:17:46;;;;;;;1.58;0.50;;;;;;;5.03;100.00;93486.50;2130333;27;20358;-69
2022/11/10 02:18:47;;;;;;;2.92;0.77;;;;;;;5.02;100.00;93486.88;2130545;27;20049;-72
2022/11/10 02:19:50;;;;;;;4.57;0.80;;;;;;;5.07;100.00;93491.06;2129507;27;20467;-71
2022/11/10 02:20:52;;;;;;;0.88;0.60;;;;;;;5.05;100.00;93492.19;2130682;27;20049;-70
2022/11/10 02:21:54;;;;;;;1.00;0.50;;;;;;;5.06;100.00;93495.59;2126685;27;20457;-72
2022/11/10 02:22:55;;;;;;;1.25;1.15;;;;;;;5.07;100.00;93491.81;2130745;27;20033;-70
2022/11/10 02:23:56;;;;;;;2.95;0.60;;;;;;;5.02;100.00;93490.28;2130848;27;20130;-70
2022/11/10 02:24:57;;;;;;;2.75;0.70;;;;;;;4.98;100.00;93491.38;2130622;27;20034;-71
2022/11/10 02:25:58;;;;;;;2.20;0.70;;;;;;;4.93;100.00;93495.16;2126979;27;20109;-71
2022/11/10 02:26:59;;;;;;;3.83;0.55;;;;;;;4.97;100.00;93498.56;2130810;27;20424;-70
2022/11/10 02:28:00;;;;;;;6.28;0.60;;;;;;;4.86;100.00;93497.75;2130589;27;20034;-71
2022/11/10 02:29:01;;;;;;;1.98;0.60;;;;;;;4.94;100.00;93495.91;2130623;27;20022;-70
2022/11/10 02:30:03;;;;;;;0.82;0.68;;;;;;;5.01;100.00;93502.00;2130286;27;20026;-70
2022/11/10 02:31:05;;;;;;;1.35;0.77;;;;;;;4.98;100.00;93497.44;2130183;27;20038;-70
2022/11/10 02:32:06;;;;;;;2.53;0.60;;;;;;;5.00;100.00;93500.50;2130710;27;20034;-70
2022/11/10 02:33:07;;;;;;;4.32;0.82;;;;;;;4.91;100.00;93502.69;2130662;27;20770;-70
2022/11/10 02:34:08;;;;;;;0.55;0.55;;;;;;;4.97;100.00;93495.94;2130635;27;20026;-70
2022/11/10 02:35:09;;;;;;;2.10;0.70;;;;;;;4.92;100.00;93501.56;2130486;27;20058;-70
2022/11/10 02:36:10;;;;;;;2.53;0.75;;;;;;;4.95;100.00;93503.47;2129845;27;20349;-70
2022/11/10 02:37:11;;;;;;;2.35;0.70;;;;;;;5.00;100.00;93505.78;2121432;28;20019;-70
2022/11/10 02:38:13;;;;;;;6.53;0.65;;;;;;;4.97;100.00;93511.06;2121429;27;20612;-70
2022/11/10 02:39:14;;;;;;;1.65;0.40;;;;;;;5.02;100.00;93508.81;2121260;28;20107;-70
2022/11/10 02:40:15;;;;;;;4.82;0.75;;;;;;;5.03;100.00;93506.91;2121104;28;20019;-70
2022/11/10 02:41:16;;;;;;;7.30;0.70;;;;;;;5.00;100.00;93505.78;2129813;27;20409;-71
2022/11/10 02:42:17;;;;;;;1.00;0.50;;;;;;;5.03;100.00;93510.34;2130737;27;20019;-70
2022/11/10 02:43:18;;;;;;;3.20;0.70;;;;;;;5.11;100.00;93513.78;2130582;27;20031;-70
2022/11/10 02:44:19;;;;;;;1.67;0.60;;;;;;;5.13;100.00;93518.69;2130502;27;20607;-71
2022/11/10 02:45:20;;;;;;;2.08;0.50;;;;;;;5.23;100.00;93518.78;2121050;28;20015;-72
2022/11/10 02:46:21;;;;;;;4.18;0.55;;;;;;;5.29;100.00;93517.28;2115723;28;20441;-70
2022/11/10 02:47:22;;;;;;;1.33;0.65;;;;;;;5.27;100.00;93522.19;2126301;27;20027;-70
2022/11/10 02:48:23;;;;;;;1.48;0.70;;;;;;;5.21;100.00;93515.72;2130574;27;20058;-72
2022/11/10 02:49:24;;;;;;;1.45;0.60;;;;;;;5.21;100.00;93515.72;2130443;27;20026;-70
2022/11/10 02:50:25;;;;;;;1.13;0.88;;;;;;;5.33;100.00;93512.00;2130394;27;20452;-71
2022/11/10 02:51:26;;;;;;;1.67;0.60;;;;;;;5.30;100.00;93512.72;2129720;27;20030;-71
2022/11/10 02:52:27;;;;;;;3.60;0.70;;;;;;;5.31;100.00;93519.53;2130432;27;20492;-70
2022/11/10 02:53:28;;;;;;;1.00;0.70;;;;;;;5.27;100.00;93524.09;2130525;27;20092;-70
2022/11/10 02:54:29;;;;;;;1.35;0.80;;;;;;;5.30;100.00;93516.13;2130556;27;20050;-71
2022/11/10 02:55:31;;;;;;;2.38;0.70;;;;;;;5.31;100.00;93516.91;2130198;27;20031;-72
2022/11/10 02:56:32;;;;;;;4.97;0.75;;;;;;;5.30;100.00;93523.34;2129308;27;20520;-71
2022/11/10 02:57:33;;;;;;;3.08;0.90;;;;;;;5.32;100.00;93517.69;2130508;27;20030;-71
2022/11/10 02:58:34;;;;;;;2.83;0.70;;;;;;;5.43;100.00;93521.88;2130448;27;20023;-70
2022/11/10 02:59:34;;;;;;;3.10;0.70;;;;;;;5.39;100.00;93525.66;2130380;27;20046;-71
2022/11/10 03:00:35;;;;;;;2.88;0.60;;;;;;;5.36;100.00;93521.88;2130234;27;20046;-70
2022/11/10 03:01:36;;;;;;;3.92;0.80;;;;;;;5.33;100.00;93529.78;2129973;27;20038;-69
2022/11/10 03:02:37;;;;;;;2.22;0.82;;;;;;;5.36;100.00;93537.00;2130655;27;20027;-71
2022/11/10 03:03:38;;;;;;;1.70;0.70;;;;;;;5.37;100.00;93539.28;2130425;27;20050;-71
2022/11/10 03:04:39;;;;;;;2.92;0.73;;;;;;;5.35;100.00;93530.94;2130500;27;20042;-72
2022/11/10 03:05:40;;;;;;;4.53;0.80;;;;;;;5.40;100.00;93533.25;2130444;27;20129;-70
2022/11/10 03:06:41;;;;;;;6.32;0.88;;;;;;;5.36;100.00;93545.72;2129557;27;20048;-70
2022/11/10 03:07:42;;;;;;;7.25;1.00;;;;;;;5.38;100.00;93537.38;2130386;27;20069;-71
2022/11/10 03:08:43;;;;;;;3.45;0.90;;;;;;;5.39;100.00;93529.06;2130484;27;20033;-69
2022/11/10 03:09:44;;;;;;;2.17;0.70;;;;;;;5.42;100.00;93530.97;2130480;27;20121;-71
2022/11/10 03:10:45;;;;;;;5.20;0.90;;;;;;;5.38;100.00;93535.50;2130890;27;20034;-71
2022/11/10 03:11:46;;;;;;;3.60;0.80;;;;;;;5.51;100.00;93539.34;2132033;27;20030;-70
2022/11/10 03:12:47;;;;;;;3.97;1.10;;;;;;;5.48;100.00;93548.03;2130597;27;20062;-71
2022/11/10 03:13:48;;;;;;;1.77;0.70;;;;;;;5.45;100.00;93540.84;2132248;27;20058;-70
2022/11/10 03:14:49;;;;;;;4.75;1.00;;;;;;;5.44;100.00;93536.66;2122728;27;20502;-70
2022/11/10 03:15:50;;;;;;;2.28;0.80;;;;;;;5.49;100.00;93540.84;2122563;27;20056;-70
2022/11/10 03:16:52;;;;;;;2.95;1.00;;;;;;;5.55;100.00;93542.00;2132017;27;20147;-72
2022/11/10 03:17:53;;;;;;;4.57;0.90;;;;;;;5.57;100.00;93539.72;2129551;27;20056;-69
2022/11/10 03:18:54;;;;;;;2.70;0.88;;;;;;;5.59;100.00;93545.44;2132052;27;20050;-70
2022/11/10 03:19:55;;;;;;;3.17;0.82;;;;;;;5.55;100.00;93542.00;2131932;27;20087;-70
2022/11/10 03:20:56;;;;;;;1.30;0.70;;;;;;;5.53;100.00;93542.38;2131983;27;20104;-71
2022/11/10 03:21:57;;;;;;;2.33;0.85;;;;;;;5.58;100.00;93541.28;2131868;27;20018;-70
2022/11/10 03:23:03;;;;;;;2.97;0.65;;;;;;;5.52;100.00;93540.84;2131450;27;20129;-70
2022/11/10 03:24:04;;;;;;;2.17;1.05;;;;;;;5.51;100.00;93543.88;2132025;27;20511;-70
2022/11/10 03:25:06;;;;;;;5.00;1.30;;;;;;;5.54;100.00;93551.09;2132019;27;20105;-70
2022/11/10 03:26:07;;;;;;;2.75;1.02;;;;;;;5.53;100.00;93533.66;2131619;27;20026;-70
2022/11/10 03:27:08;;;;;;;4.20;1.17;;;;;;;5.49;100.00;93532.91;2132057;27;20034;-70
2022/11/10 03:28:10;;;;;;;4.72;0.80;;;;;;;5.50;100.00;93542.38;2131346;27;20067;-71
2022/11/10 03:29:11;;;;;;;4.15;0.70;;;;;;;5.50;100.00;93537.81;2132031;27;20448;-70
2022/11/10 03:30:12;;;;;;;2.05;0.55;;;;;;;5.54;100.00;93543.91;2132021;27;20030;-69
2022/11/10 03:31:13;;;;;;;3.30;0.80;;;;;;;5.57;100.00;93545.03;2131874;27;20067;-69
2022/11/10 03:32:14;;;;;;;2.90;0.80;;;;;;;5.53;100.00;93545.03;2131705;27;20417;-69
2022/11/10 03:33:15;;;;;;;4.32;0.90;;;;;;;5.52;100.00;93540.84;2131243;27;20696;-69
2022/11/10 03:34:17;;;;;;;4.18;0.80;;;;;;;5.59;100.00;93545.44;2131883;27;20439;-70
2022/11/10 03:35:18;;;;;;;3.17;0.98;;;;;;;5.57;100.00;93555.63;2132044;27;20030;-72
2022/11/10 03:36:19;;;;;;;1.48;0.65;;;;;;;5.58;100.00;93546.56;2131645;27;20038;-72
2022/11/10 03:37:20;;;;;;;2.50;1.02;;;;;;;5.46;100.00;93550.31;2131746;27;20345;-69
2022/11/10 03:38:21;;;;;;;4.60;0.90;;;;;;;5.51;100.00;93557.13;2130946;27;20027;-71
2022/11/10 03:39:23;;;;;;;2.83;0.90;;;;;;;5.48;100.00;93553.31;2127620;27;20578;-70
2022/11/10 03:40:24;;;;;;;2.75;1.00;;;;;;;5.47;100.00;93559.78;2131884;27;20038;-73
2022/11/10 03:41:25;;;;;;;3.30;0.70;;;;;;;5.48;100.00;93561.28;2131847;27;20109;-73
2022/11/10 03:42:26;;;;;;;1.83;0.73;;;;;;;5.41;100.00;93555.22;2131591;27;20106;-72
2022/11/10 03:43:26;;;;;;;1.95;0.80;;;;;;;5.38;100.00;93563.91;2131269;27;20019;-70
2022/11/10 03:44:27;;;;;;;4.97;1.05;;;;;;;5.34;100.00;93566.53;2131678;27;20075;-72
2022/11/10 03:45:28;;;;;;;1.00;0.90;;;;;;;5.23;100.00;93566.47;2131874;27;20071;-71
2022/11/10 03:46:29;;;;;;;4.38;0.90;;;;;;;5.25;100.00;93564.19;2131502;27;20018;-73
2022/11/10 03:47:30;;;;;;;4.75;0.98;;;;;;;5.22;100.00;93564.19;2131622;27;20496;-69
2022/11/10 03:48:31;;;;;;;3.13;0.93;;;;;;;5.21;100.00;93567.97;2131140;27;20740;-72
2022/11/10 03:49:32;;;;;;;3.90;0.80;;;;;;;5.13;100.00;93564.50;2131633;27;20468;-69
2022/11/10 03:50:34;;;;;;;4.30;1.20;;;;;;;5.16;100.00;93570.97;2131877;27;20401;-73
2022/11/10 03:51:35;;;;;;;4.63;0.90;;;;;;;5.16;100.00;93570.97;2131903;27;20026;-71
2022/11/10 03:52:38;;;;;;;6.63;0.80;;;;;;;5.12;100.00;93580.78;2131566;27;20050;-73
2022/11/10 03:53:38;;;;;;;2.25;0.93;;;;;;;5.12;100.00;93578.88;2131667;27;20031;-69
2022/11/10 03:54:39;;;;;;;2.67;0.73;;;;;;;5.10;100.00;93575.84;2121733;27;20035;-72
2022/11/10 03:55:40;;;;;;;2.20;0.90;;;;;;;5.14;100.00;93574.00;2122586;27;20019;-72
2022/11/10 03:56:41;;;;;;;5.35;0.95;;;;;;;5.09;100.00;93584.16;2131478;27;20847;-71
2022/11/10 03:57:42;;;;;;;2.17;0.90;;;;;;;5.04;100.00;93580.72;2131450;27;20522;-71
2022/11/10 03:58:43;;;;;;;3.25;1.20;;;;;;;4.94;100.00;93581.41;2131673;27;20464;-71
2022/11/10 03:59:44;;;;;;;7.55;1.10;;;;;;;5.03;100.00;93584.50;2129335;27;20031;-71
2022/11/10 04:00:45;;;;;;;3.58;1.08;;;;;;;5.10;100.00;93593.66;2131807;27;20100;-71
2022/11/10 04:01:46;;;;;;;3.72;0.90;;;;;;;5.11;100.00;93587.22;2131784;27;20107;-71
2022/11/10 04:02:47;;;;;;;10.00;1.52;;;;;;;5.11;100.00;93595.91;2131581;27;20010;-71
2022/11/10 04:03:49;;;;;;;4.22;1.20;;;;;;;5.06;100.00;93598.91;2131687;27;20079;-71
2022/11/10 04:08:59;;;;;;;40.17;1.10;;;;;;;4.88;100.00;93604.09;2124258;27;20027;-70
2022/11/10 04:10:01;;;;;;;27.90;1.05;;;;;;;4.90;100.00;93606.38;2123349;27;20038;-71
2022/11/10 04:11:02;;;;;;;136.50;2.67;;;;;;;4.90;100.00;93614.31;2131800;27;20581;-73
2022/11/10 04:16:02;;;;;;;130.57;5.55;;;;;;;4.77;100.00;93616.47;2131235;27;20024;-72
2022/11/10 04:17:04;;;;;;;32.60;3.35;;;;;;;4.73;100.00;93616.44;2131363;27;20026;-71
2022/11/10 04:18:20;;;;;;;95.60;3.97;;;;;;;4.73;100.00;93618.31;2131342;27;20023;-71
2022/11/10 04:19:21;;;;;;;70.20;2.80;;;;;;;4.75;100.00;93619.50;2122337;27;20015;-70
2022/11/10 04:20:22;;;;;;;68.72;2.10;;;;;;;4.71;100.00;93625.91;2122074;27;20062;-71
2022/11/10 04:21:23;;;;;;;33.97;1.50;;;;;;;4.65;100.00;93627.34;2131764;27;20461;-72
2022/11/10 04:23:43;;;;;;;24.42;1.30;;;;;;;4.54;100.00;93622.72;2131717;27;20054;-70
2022/11/10 04:24:44;;;;;;;11.75;1.08;;;;;;;4.64;100.00;93628.47;2131723;27;20033;-72
2022/11/10 04:26:27;;;;;;;8.23;0.98;;;;;;;4.67;100.00;93625.84;2130883;27;20050;-70
2022/11/10 04:27:06;;;;;;;6.32;1.08;;;;;;;4.64;100.00;93631.88;2129280;27;20439;-71
2022/11/10 04:28:07;;;;;;;4.85;0.88;;;;;;;4.59;100.00;93628.81;2131485;27;20022;-71
2022/11/10 04:29:10;;;;;;;12.45;1.02;;;;;;;4.42;100.00;93624.84;2131186;27;20429;-70
2022/11/10 04:30:11;;;;;;;6.35;0.85;;;;;;;4.48;100.00;93626.81;2131491;27;20372;-70
2022/11/10 04:31:13;;;;;;;3.65;0.80;;;;;;;4.49;100.00;93632.88;2130876;27;20035;-69
2022/11/10 04:32:14;;;;;;;1.10;0.70;;;;;;;4.48;100.00;93626.06;2131520;27;20059;-70
2022/11/10 04:33:15;;;;;;;1.85;0.60;;;;;;;4.44;100.00;93626.03;2131659;27;20061;-70
2022/11/10 04:34:16;;;;;;;96.25;2.65;;;;;;;4.19;100.00;93633.72;2131306;27;20027;-71
2022/11/10 04:35:17;;;;;;;5.20;0.80;;;;;;;4.24;100.00;93627.34;2131631;27;20345;-70
2022/11/10 04:36:21;;;;;;;6.55;0.80;;;;;;;4.19;100.00;93633.72;2130880;27;20034;-71
2022/11/10 04:37:22;;;;;;;1.05;0.70;;;;;;;4.22;100.00;93632.25;2131849;27;20023;-72
2022/11/10 04:38:23;;;;;;;1.42;0.88;;;;;;;4.31;100.00;93624.00;2127460;27;20732;-71
2022/11/10 04:39:23;;;;;;;2.22;0.80;;;;;;;4.40;100.00;93633.19;2131425;27;20033;-71
2022/11/10 04:40:25;;;;;;;0.70;0.70;;;;;;;4.32;100.00;93621.00;2131604;27;20067;-70
2022/11/10 04:41:27;;;;;;;5.85;0.70;;;;;;;4.26;100.00;93630.38;2130400;27;20106;-70
2022/11/10 04:42:28;;;;;;;2.72;0.70;;;;;;;4.16;100.00;93625.72;2131406;27;20408;-71
2022/11/10 04:43:29;;;;;;;1.17;0.60;;;;;;;4.08;100.00;93621.47;2131237;27;20026;-70
2022/11/10 04:44:30;;;;;;;3.47;0.70;;;;;;;3.96;100.00;93631.19;2131205;27;20023;-71
2022/11/10 04:45:32;;;;;;;2.08;0.88;;;;;;;4.01;100.00;93632.75;2131281;27;20018;-72
2022/11/10 04:46:36;;;;;;;0.95;0.70;;;;;;;4.00;100.00;93631.25;2130354;27;20117;-73
2022/11/10 04:47:37;;;;;;;1.13;0.75;;;;;;;4.00;100.00;93625.94;2121883;27;20376;-71
2022/11/10 04:48:37;;;;;;;1.55;0.90;;;;;;;4.06;100.00;93642.25;2122272;27;20078;-71
2022/11/10 04:49:38;;;;;;;5.32;1.27;;;;;;;4.02;100.00;93640.31;2131181;27;20095;-71
2022/11/10 04:50:39;;;;;;;1.98;0.70;;;;;;;4.06;100.00;93648.31;2131441;27;20353;-72
2022/11/10 04:51:40;;;;;;;1.25;0.70;;;;;;;3.98;100.00;93647.44;2131203;27;20129;-73
2022/11/10 04:52:41;;;;;;;0.60;0.60;;;;;;;3.98;100.00;93647.44;2129740;27;20038;-71
2022/11/10 04:53:42;;;;;;;2.03;0.77;;;;;;;3.89;100.00;93646.97;2131203;27;20043;-71
2022/11/10 04:54:43;;;;;;;3.83;0.80;;;;;;;3.89;100.00;93652.25;2131070;27;20159;-72
2022/11/10 04:55:45;;;;;;;1.67;0.80;;;;;;;3.84;100.00;93647.28;2131265;27;20029;-71
2022/11/10 04:56:46;;;;;;;7.95;1.10;;;;;;;3.69;100.00;93653.53;2130986;27;20483;-71
2022/11/10 04:57:47;;;;;;;2.67;0.75;;;;;;;3.76;100.00;93656.25;2130931;27;20030;-71
2022/11/10 04:58:48;;;;;;;1.85;0.70;;;;;;;3.74;100.00;93653.22;2131182;27;20031;-71
2022/11/10 04:59:49;;;;;;;0.70;0.70;;;;;;;3.77;100.00;93661.16;2131009;27;20071;-71
2022/11/10 05:00:50;;;;;;;2.00;0.93;;;;;;;3.77;100.00;93665.69;2130958;27;20087;-70
2022/11/10 05:01:51;;;;;;;2.70;0.93;;;;;;;3.76;100.00;93664.94;2122875;27;20034;-70
2022/11/10 05:02:52;;;;;;;1.77;0.77;;;;;;;3.70;100.00;93670.91;2129192;27;20027;-71
2022/11/10 05:03:54;;;;;;;6.80;1.00;;;;;;;3.69;100.00;93674.69;2131252;27;20019;-70